KPVW/PVW METAR and TAF weather

Enter ICAO airport designator
Station Type Date Time Source
KPVW METAR 2022/08/16 19:15 UTC NOAA

KPVW 161915Z AUTO 13007KT 10SM CLR 30/12 A3009 RMK AO2 T02960124 TSNO


Station Type Date Time Source
KPVW Decoded METAR 2022/08/16 19:15 UTC NOAA

Plainview, Hale County Airport, TX, United States (KPVW) 34-10-05N 101-43-02W
Aug 16, 2022 - 03:15 PM EDT / 2022.08.16 1915 UTC
Wind: from the SE (130 degrees) at 8 MPH (7 KT):0
Visibility: 10 mile(s):0
Sky conditions: clear
Temperature: 85.3 F (29.6 C)
Dew Point: 54.3 F (12.4 C)
Relative Humidity: 34%
Pressure (altimeter): 30.09 in. Hg (1018 hPa)
ob: KPVW 161915Z AUTO 13007KT 10SM CLR 30/12 A3009 RMK AO2 T02960124 TSNO
cycle: 19

Station Type Date Time Source
KPVW TAF 2022/08/16 18:22 UTC NOAA

TAF KPVW 161720Z 1618/1718 23011KT P6SM SCT250
FM170700 02009KT P6SM BKN250

Example: see airport list